Rosenort Airport

CKJ2 · Manitoba, Kanada

METAR-Geschichte CKJ2 · Rosenort Airport

Unten siehst du die METARs der letzten paar Tage. Wähle ein Jahr, um ältere METARs ab dem Jahr 2007 zu durchsuchen.

5. März 2024

Uhrzeit Code Wetter Temp. Sichtweite Wolkendecke Wind METAR/SPECI
09:00
V
-17 °C 15 mi - 280° 280° 5 kt METAR CYWG 051500Z 28005KT 15SM FEW250 M17/M22 A3023 RMK CI1 CI TR SLP264
08:00
V
-19 °C 15 mi - 270° 270° 4 kt METAR CYWG 051400Z 27004KT 15SM FEW240 M19/M22 A3023 RMK CI1 SLP262
07:00
V
-20 °C 15 mi - 270° 270° 7 kt METAR CYWG 051300Z 27007KT 15SM FEW240 M20/M23 A3022 RMK CI1 SLP258
06:00
V
-19 °C 15 mi - 250° 250° 3 kt METAR CYWG 051200Z 25003KT 15SM SKC M19/M22 A3018 RMK SLP247
05:00
V
-19 °C 15 mi - 260° 260° 7 kt METAR CYWG 051100Z 26007KT 15SM SKC M19/M22 A3017 RMK SLP243
04:00
V
-18 °C 15 mi - 260° 260° 7 kt METAR CYWG 051000Z 26007KT 15SM SKC M18/M22 A3016 RMK SLP237
03:00
V
-18 °C 15 mi - 260° 260° 6 kt METAR CYWG 050900Z 26006KT 15SM SKC M18/M21 A3015 RMK SLP233
02:00
V
-17 °C 15 mi - 270° 270° 8 kt METAR CYWG 050800Z 27008KT 15SM SKC M17/M21 A3013 RMK SLP228
01:00
V
-16 °C 15 mi - 260° 260° 10 kt METAR CYWG 050700Z 26010KT 15SM SKC M16/M20 A3012 RMK SLP222
00:00
V
-15 °C 15 mi - 250° 250° 12 kt METAR CYWG 050600Z 25012KT 15SM SKC M15/M19 A3010 RMK SLP216

4. März 2024

Uhrzeit Code Wetter Temp. Sichtweite Wolkendecke Wind METAR/SPECI
23:00
V
-14 °C 15 mi - 250° 250° 11 kt METAR CYWG 050500Z 25011KT 15SM SKC M14/M19 A3010 RMK SLP218
22:00
V
-14 °C 15 mi - 240° 240° 12 - 17 kt METAR CYWG 050400Z 24012G17KT 15SM SKC M14/M18 A3009 RMK SLP214
21:00
V
-13 °C 15 mi - 240° 240° 13 kt METAR CYWG 050300Z 24013KT 15SM SKC M13/M18 A3008 RMK SLP208
20:00
V
-13 °C 15 mi - 250° 250° 12 kt METAR CYWG 050200Z 25012KT 15SM SKC M13/M18 A3005 RMK SLP201
19:00
V
-12 °C 15 mi - 240° 240° 14 - 20 kt METAR CYWG 050100Z 24014G20KT 15SM DRSN FEW250 M12/M17 A3004 RMK CI1 CI TR SLP197
18:00
V
-12 °C 15 mi - 240° 240° 12 - 17 kt METAR CYWG 050000Z 24012G17KT 15SM DRSN FEW250 M12/M17 A3002 RMK CI1 CI TR SLP189
17:00
V
-11 °C 15 mi - 240° 240° 15 - 22 kt METAR CYWG 042300Z 24015G22KT 15SM DRSN FEW021 FEW250 M11/M16 A3000 RMK CF1CI1 CF TR CI TR SLP181
16:00
V
-10 °C 15 mi - 250° 250° 14 - 22 kt METAR CYWG 042200Z 25014G22KT 15SM DRSN FEW021 FEW250 M10/M15 A2997 RMK CF1CI1 CF TR CI TR SLP170
15:00
V
-10 °C 15 mi - 250° 250° 16 - 22 kt METAR CYWG 042100Z 25016G22KT 15SM DRSN FEW021 FEW250 M10/M15 A2994 RMK CF1CI1 SLP160
14:00
V
-10 °C 15 mi - 240° 240° 17 - 26 kt METAR CYWG 042000Z 24017G26KT 15SM DRSN FEW018 FEW250 M10/M15 A2991 RMK CF2CI1 CI TR SLP150
13:00
V
-10 °C 15 mi - 240° 240° 17 - 27 kt METAR CYWG 041900Z 24017G27KT 15SM DRSN FEW022 M10/M15 A2989 RMK CF1 SLP140
12:00
V
-11 °C 12 mi - 250° 250° 17 - 25 kt METAR CYWG 041800Z 25017G25KT 12SM DRSN FEW019 FEW250 M11/M15 A2987 RMK CF1CI1 CF TR PRESRR SLP135
11:00
V
-11 °C 12 mi - 250° 250° 18 - 23 kt METAR CYWG 041700Z 25018G23KT 12SM DRSN FEW016 FEW250 M11/M15 A2983 RMK CF1CI1 CF TR SLP119
10:00
V
-12 °C 12 mi - 240° 240° 20 - 26 kt METAR CYWG 041600Z 24020G26KT 12SM DRSN FEW170 FEW250 M12/M16 A2979 RMK AC1CI2 AC TR PRESRR SLP106
09:00
V
-13 °C 15 mi - 240° 240° 17 - 24 kt METAR CYWG 041500Z 24017G24KT 15SM DRSN FEW170 FEW250 M13/M16 A2974 RMK AC1CI1 AC TR SLP089
08:00
V
-13 °C 15 mi - 240° 240° 18 - 27 kt METAR CYWG 041400Z 24018G27KT 15SM FEW033 SCT170 SCT250 M13/M16 A2970 RMK SC2AC1CI1 CI TR PRESRR SLP074
07:00
V
-13 °C 12 mi 14.000 ft 240° 240° 20 - 25 kt METAR CYWG 041300Z 24020G25KT 12SM DRSN SCT033 BKN140 M13/M16 A2964 RMK SC4AC1 PRESRR SLP057
06:26
V
-12 °C 14 mi 3.300 ft 240° 240° 21 - 26 kt METAR CYWG 041226Z 24021G26KT 14SM DRSN BKN033 BKN180 M12/M15 A2962 RMK SC6AC1 SLP048
06:00
M
-12 °C 12 mi 1.800 ft 240° 240° 15 - 24 kt METAR CYWG 041200Z 24015G24KT 12SM -SN DRSN BKN018 OVC140 M12/M14 A2960 RMK SC7AC1 /S03/ PRESRR SLP040
05:25
M
-11 °C 3 mi 1.200 ft 250° 250° 22 - 32 kt METAR CYWG 041125Z 25022G32KT 3SM -SN BLSN OVC012 M11/M13 A2955 RMK SC8 SLP025
05:00
I
-11 °C 1¼ mi 1.200 ft 260° 260° 20 - 28 kt METAR CYWG 041100Z 26020G28KT 1 1/4SM -SN BLSN OVC012 M11/M13 A2953 RMK SC8 VIS VRB 3/4-13/4 SLP018
04:37
I
-11 °C 1 mi 900 ft 250° 250° 20 - 29 kt METAR CYWG 041037Z 25020G29KT 1SM R36/P6000FT/D R31/5500VP6000FT/U -SN BLSN OVC009 M11/M12 A2952 RMK SN6SC2 PRESRR SLP013
04:28
L
-11 °C ¾ mi 800 ft 260° 260° 23 - 33 kt METAR CYWG 041028Z 26023G33KT 3/4SM R36/P6000FT/D R31/P6000FT/D -SN BLSN VV008 M11/M13 A2950 RMK SN8 SLP007
04:12
I
-11 °C 2½ mi 1.400 ft 260° 260° 27 - 37 kt METAR CYWG 041012Z 26027G37KT 2 1/2SM -SN BLSN OVC014 M11/M13 A2949 RMK SN2SC6 VIS VRB 13/3-4 SLP003
04:00
I
-11 °C 1½ mi 1.400 ft 250° 250° 22 - 33 kt METAR CYWG 041000Z 25022G33KT 1 1/2SM -SN BLSN OVC014 M11/M13 A2949 RMK SC8 VIS VRB 1-2 SLP003
03:26
M
-10 °C 5 mi 1.400 ft 250° 250° 24 - 35 kt METAR CYWG 040926Z 25024G35KT 5SM R31/5500VP6000FT/D -SN BLSN OVC014 M10/M12 A2946 RMK SC8 SLP993
03:00
I
-10 °C 1 mi 1.400 ft 260° 260° 24 - 37 kt METAR CYWG 040900Z 26024G37KT 1SM R36/P6000FT/D R31/3500VP6000FT/U -SN BLSN OVC014 M10/M11 A2943 RMK SN6SC2 /S02/ SLP982
02:00
I
-8 °C 1¼ mi 1.100 ft 260° 260° 26 - 35 kt METAR CYWG 040800Z 26026G35KT 1 1/4SM R31/4500VP6000FT/N -SN BLSN OVC011 M08/M09 A2935 RMK SN4SC4 SLP957
01:00
I
-5 °C 1¼ mi 800 ft 270° 270° 27 - 33 kt METAR CYWG 040700Z 27027G33KT 1 1/4SM -SN BLSN OVC008 M05/M06 A2927 RMK SC8 /S01/ SLP927
00:50
I
-5 °C 1½ mi 700 ft 270° 270° 25 - 31 kt METAR CYWG 040650Z 27025G31KT 1 1/2SM -SN BLSN BKN007 OVC020 M05/M06 A2926 RMK SC7SC1 VIS VRB 1- 2 SLP922
00:37
I
-5 °C 2¼ mi 2.000 ft 280° 280° 26 - 31 kt METAR CYWG 040637Z 28026G31KT 2 1/4SM -SN BLSN SCT006 OVC020 M05/M06 A2924 RMK SC3SC5 11/2-3 SLP918
00:00
I
-4 °C 1½ mi 600 ft 290° 290° 21 kt METAR CYWG 040600Z 29021KT 1 1/2SM -SN BLSN BKN006 M04/M04 A2919 RMK SC2 VIS VRB 1-2 /S04/ PRESRR SLP900

3. März 2024

Uhrzeit Code Wetter Temp. Sichtweite Wolkendecke Wind METAR/SPECI
23:47
I
-4 °C 2 mi 800 ft 290° 290° 20 kt METAR CYWG 040547Z 29020KT 2SM -SN BLSN OVC008 M04/M04 A2917 RMK SC8 PRESRR SLP892
23:26
I
-3 °C 4 mi 700 ft 010° 010° 11 kt METAR CYWG 040526Z 01011KT 4SM -SN DRSN OVC007 M03/M03 A2912 RMK SC8 SLP874
23:00
I
-2 °C 1½ mi 600 ft 030° 030° 13 kt METAR CYWG 040500Z 03013KT 1 1/2SM -SN OVC006 M02/M02 A2912 RMK SC8 VIS VRB 1-2 /S03/ SLP875
22:00
I
-1 °C 1½ mi 600 ft 050° 050° 10 kt METAR CYWG 040400Z 05010KT 1 1/2SM -SN DRSN OVC006 M01/M01 A2915 RMK SC8 VIS VRB 1-2 SLP884
21:43
I
-1 °C 1½ mi 500 ft 060° 060° 11 kt METAR CYWG 040343Z 06011KT 1 1/2SM -SN DRSN OVC005 M01/M01 A2916 RMK SC8 VIS VRB 1-2 SLP887
21:27
I
-1 °C 5 mi 700 ft 070° 070° 9 kt METAR CYWG 040327Z 07009KT 5SM -SN DRSN OVC007 M01/M01 A2917 RMK SC8 SLP890
21:14
I
-1 °C 1¼ mi 500 ft 070° 070° 11 kt METAR CYWG 040314Z 07011KT 1 1/4SM -SN DRSN OVC005 M01/M01 A2918 RMK SC8 SLP893
21:00
I
-1 °C 1½ mi 600 ft 070° 070° 11 kt METAR CYWG 040300Z 07011KT 1 1/2SM -SNPL DRSN OVC006 M01/M01 A2918 RMK SC8 SLP896
20:47
I
-1 °C 2½ mi 700 ft 080° 080° 10 - 16 kt METAR CYWG 040247Z 08010G16KT 2 1/2SM -SNPL DRSN OVC007 M01/M01 A2919 RMK SC8 VIS VRB 13/4-4 SLP898
20:00
I
-1 °C 4 mi 700 ft 080° 080° 14 - 21 kt METAR CYWG 040200Z 08014G21KT 4SM -FZRA -PL BR BKN007 OVC014 M01/M01 A2921 RMK SC6NS2 VIS VRB 3-5 ICE ON INDICATOR SLP907
19:00
I
-1 °C 4 mi 700 ft 100° 100° 16 - 24 kt METAR CYWG 040100Z 10016G24KT 4SM -FZRA -PL BR BKN007 OVC014 M01/M02 A2924 RMK SF6NS2 VIS VRB 3-5 ICE ON INDICATOR 2MM THK SLP916
18:56
I
-1 °C 4 mi 600 ft 100° 100° 17 - 24 kt METAR CYWG 040056Z 10017G24KT 4SM -FZRA -PL BKN006 OVC018 M01/M02 A2924 RMK SF6NS2 VIS VRB 3-5 ICE ON INDICATOR SLP916
18:07
I
-1 °C 3 mi 600 ft 090° 090° 16 - 24 kt METAR CYWG 040007Z CCA 09016G24KT 3SM -FZRA BR BKN006 OVC010 M01/M02 A2925 RMK SF6NS2 VIS VRB 21/4 - 4 ICE ON INDICATOR SLP921
18:00
I
-1 °C 3 mi 700 ft 090° 090° 16 - 22 kt METAR CYWG 040000Z 09016G22KT 3SM -FZDZ BR BKN007 OVC011 M01/M02 A2926 RMK SF6ST2 VIS VRB 21/4 - 4 ICE ON INDICATOR SLP923
17:00
I
-2 °C 4 mi 600 ft 090° 090° 19 kt METAR CYWG 032300Z 09019KT 4SM -FZDZ BR BKN006 OVC010 M02/M02 A2929 RMK SF7ST1 VIS VRB 3-5 ICE ON INDICATOR SLP932
16:00
I
-2 °C 5 mi 900 ft 090° 090° 18 - 28 kt METAR CYWG 032200Z 09018G28KT 5SM -FZDZ BR OVC009 M02/M04 A2933 RMK ST8 SF ASOCTD SLP947
15:52
I
-2 °C 6 mi 900 ft 080° 080° 21 - 28 kt METAR CYWG 032152Z 08021G28KT 6SM -FZDZ BR OVC009 M02/M04 A2934 RMK ST8 SLP949
15:00
M
-3 °C 15 mi 1.000 ft 080° 080° 18 - 27 kt METAR CYWG 032100Z 08018G27KT 15SM OVC010 M03/M04 A2934 RMK SC8 ST ASOCTD SLP951
14:51
M
-3 °C 14 mi 1.100 ft 080° 080° 21 - 27 kt METAR CYWG 032051Z 08021G27KT 14SM OVC011 M03/M04 A2935 RMK SC8 PART ICE ON INDICATOR INTMT -FZRA NS ASOCTD SLP953
14:28
M
-2 °C 12 mi 1.100 ft 080° 080° 20 - 25 kt METAR CYWG 032028Z 08020G25KT 12SM -FZRA BKN011 OVC020 M02/M04 A2937 RMK SC6NS2 VIS N-E LWR PRESFR SLP959
14:00
M
-2 °C 15 mi 1.100 ft 080° 080° 15 - 24 kt METAR CYWG 032000Z 08015G24KT 15SM OVC011 M02/M04 A2939 RMK ST8 SC ASOCTD SLP969
13:23
M
-2 °C 14 mi 1.100 ft 080° 080° 18 - 23 kt METAR CYWG 031923Z 08018G23KT 14SM OVC011 OVC025 M02/M04 A2943 RMK ST8NS1 NS TR INTMT -FZRA -PL PRESFR SLP981
13:15
M
-2 °C 13 mi 1.200 ft 090° 090° 16 - 25 kt METAR CYWG 031915Z 09016G25KT 13SM -FZRA -PL OVC012 OVC025 M02/M04 A2945 RMK ST8NS1 NS TR SLP988
13:00
M
-2 °C 15 mi 1.200 ft 080° 080° 20 - 27 kt METAR CYWG 031900Z 08020G27KT 15SM OVC012 OVC075 M02/M04 A2946 RMK ST8AS1 AS TR SLP991
12:31
M
-2 °C 15 mi 1.200 ft 080° 080° 18 - 27 kt METAR CYWG 031831Z 08018G27KT 15SM OVC012 OVC025 OVC070 M02/M04 A2948 RMK ST8NS1AC1 NS TR AC TR SLP998
12:04
M
-2 °C 13 mi 1.300 ft 080° 080° 22 kt METAR CYWG 031804Z 08022KT 13SM -FZRA OVC013 OVC025 OVC070 M02/M04 A2950 RMK ST8NS1AC1 NS TR AC TR -FZRA INTMT PRESFR SLP005
11:00
M
-2 °C 15 mi 1.400 ft 090° 090° 17 - 25 kt METAR CYWG 031700Z 09017G25KT 15SM BKN014 OVC070 M02/M04 A2955 RMK SC7AC1 ST ASOCTD SLP024
10:00
M
-2 °C 15 mi 1.300 ft 080° 080° 23 - 36 kt METAR CYWG 031600Z 08023G36KT 15SM OVC013 M02/M05 A2957 RMK SC8 SLP029
09:19
M
-2 °C 13 mi 1.300 ft 080° 080° 22 - 31 kt METAR CYWG 031519Z 08022G31KT 13SM OVC013 OVC020 OVC025 M02/M04 A2957 RMK SC8ST1NS1 ST TR NS TR INTMT -FZDZ PRESFR SLP030
09:00
M
-2 °C 6 mi 1.200 ft 080° 080° 26 - 34 kt METAR CYWG 031500Z 08026G34KT 6SM -FZRA -PL BR BKN012 OVC025 M02/M04 A2959 RMK SC6NS2 VIS NE-E 12 -FZRA -PL INTMT PRESFR SLP036
08:54
M
-2 °C 6 mi 1.200 ft 070° 070° 21 - 34 kt METAR CYWG 031454Z 07021G34KT 6SM -FZRA BR BKN012 OVC025 M02/M05 A2958 RMK SC6NS2 VIS NW- N 12 PRESFR SLP034
08:29
M
-2 °C 14 mi 1.300 ft 070° 070° 17 - 25 kt METAR CYWG 031429Z 07017G25KT 14SM -FZDZ BKN013 OVC020 OVC030 M02/M05 A2963 RMK SC7ST1NS1 NS TR -FZDZ INTMT SLP050
08:00
M
-2 °C 15 mi 1.300 ft 080° 080° 22 - 28 kt METAR CYWG 031400Z 08022G28KT 15SM -FZRA OVC013 M02/M05 A2963 RMK SC8 PRESFR SLP051
07:59
M
-2 °C 15 mi 1.300 ft 080° 080° 22 - 28 kt METAR CYWG 031359Z 08022G28KT 15SM -FZRA OVC013 M02/M05 A2964 RMK SC8 PRESFR SLP053
07:32
M
-3 °C 15 mi 1.400 ft 080° 080° 20 - 29 kt METAR CYWG 031332Z 08020G29KT 15SM OVC014 M03/M05 A2967 RMK SC8 PRESFR SLP064
07:00
M
-3 °C 15 mi 1.400 ft 070° 070° 16 - 23 kt METAR CYWG 031300Z 07016G23KT 15SM -SN OVC014 M03/M05 A2970 RMK SC8 SLP075
06:26
M
-3 °C 14 mi 1.300 ft 070° 070° 16 - 24 kt METAR CYWG 031226Z 07016G24KT 14SM -SN OVC013 M03/M05 A2971 RMK SC8 SLP077
06:00
M
-3 °C 14 mi 1.400 ft 080° 080° 20 - 25 kt METAR CYWG 031200Z 08020G25KT 14SM -FZDZ -SN OVC014 M03/M05 A2971 RMK SC8 ICE ON INDICATOR SLP078
05:20
M
-3 °C 9 mi 1.400 ft 070° 070° 18 kt METAR CYWG 031120Z 07018KT 9SM -SN OVC014 M03/M05 A2973 RMK SC8 SLP085
05:00
M
-3 °C 10 mi 1.700 ft 070° 070° 18 - 27 kt METAR CYWG 031100Z 07018G27KT 10SM -SN BKN017 OVC025 M03/M06 A2973 RMK SC5SC3 PRESFR SLP086
04:00
V
-4 °C 15 mi 3.300 ft 060° 060° 14 - 19 kt METAR CYWG 031000Z 06014G19KT 15SM -SN SCT018 OVC033 M04/M07 A2976 RMK SC3SC5 SLP096
03:00
M
-4 °C 15 mi 1.800 ft 060° 060° 17 - 22 kt METAR CYWG 030900Z 06017G22KT 15SM -SN BKN018 OVC044 M04/M10 A2979 RMK SC5SC3 SLP105
02:48
V
-4 °C 15 mi 4.700 ft 060° 060° 18 - 24 kt METAR CYWG 030848Z 06018G24KT 15SM -SN SCT017 OVC047 M04/M10 A2979 RMK SC3SC5 PRESFR SLP106
02:00
V
-4 °C 15 mi 5.500 ft 060° 060° 17 - 22 kt METAR CYWG 030800Z 06017G22KT 15SM SCT018 OVC055 M04/M11 A2984 RMK SC3SC5 SLP122
01:00
V
-5 °C 15 mi 6.100 ft 060° 060° 15 - 21 kt METAR CYWG 030700Z 06015G21KT 15SM FEW019 OVC061 M05/M11 A2987 RMK SC2SC8 SLP133
00:00
V
-5 °C 15 mi 7.400 ft 060° 060° 16 kt METAR CYWG 030600Z 06016KT 15SM SCT019 OVC074 M05/M12 A2989 RMK SC3AC5 SLP139